sensor_id;sensor_type;location;lat;lon;timestamp;temperature;humidity
21184;DHT22;18176;49.502;11.754;2023-08-01T00:04:09;16.00;99.90
21184;DHT22;18176;49.502;11.754;2023-08-01T00:08:10;16.00;99.90
21184;DHT22;18176;49.502;11.754;2023-08-01T00:12:11;16.00;99.90
21184;DHT22;18176;49.502;11.754;2023-08-01T00:16:12;16.00;99.90
21184;DHT22;18176;49.502;11.754;2023-08-01T00:20:15;16.00;99.90
21184;DHT22;18176;49.502;11.754;2023-08-01T00:24:15;15.90;99.90
21184;DHT22;18176;49.502;11.754;2023-08-01T00:28:15;15.90;99.90
21184;DHT22;18176;49.502;11.754;2023-08-01T00:32:16;15.90;99.90
21184;DHT22;18176;49.502;11.754;2023-08-01T00:36:19;15.90;99.90
21184;DHT22;18176;49.502;11.754;2023-08-01T00:40:19;15.90;99.90
21184;DHT22;18176;49.502;11.754;2023-08-01T00:44:20;15.90;99.90
21184;DHT22;18176;49.502;11.754;2023-08-01T00:48:20;15.80;99.90
21184;DHT22;18176;49.502;11.754;2023-08-01T00:52:23;15.80;99.90
21184;DHT22;18176;49.502;11.754;2023-08-01T00:56:24;15.80;99.90
21184;DHT22;18176;49.502;11.754;2023-08-01T01:00:24;15.80;99.90
21184;DHT22;18176;49.502;11.754;2023-08-01T01:04:25;15.70;99.90
21184;DHT22;18176;49.502;11.754;2023-08-01T01:08:29;15.70;99.90
21184;DHT22;18176;49.502;11.754;2023-08-01T01:12:30;15.70;99.90
21184;DHT22;18176;49.502;11.754;2023-08-01T01:16:30;15.70;99.90
21184;DHT22;18176;49.502;11.754;2023-08-01T01:20:34;15.70;99.90
21184;DHT22;18176;49.502;11.754;2023-08-01T01:24:35;15.60;99.90
21184;DHT22;18176;49.502;11.754;2023-08-01T01:28:37;15.60;99.90
21184;DHT22;18176;49.502;11.754;2023-08-01T01:32:39;15.70;99.90
21184;DHT22;18176;49.502;11.754;2023-08-01T01:36:44;15.70;99.90
21184;DHT22;18176;49.502;11.754;2023-08-01T01:40:44;15.70;99.90
21184;DHT22;18176;49.502;11.754;2023-08-01T01:44:50;15.60;99.90
21184;DHT22;18176;49.502;11.754;2023-08-01T01:49:02;15.60;99.90
21184;DHT22;18176;49.502;11.754;2023-08-01T01:53:15;15.60;99.90
21184;DHT22;18176;49.502;11.754;2023-08-01T01:57:32;15.60;99.90
21184;DHT22;18176;49.502;11.754;2023-08-01T02:01:50;15.60;99.90
21184;DHT22;18176;49.502;11.754;2023-08-01T02:06:10;15.60;99.90
21184;DHT22;18176;49.502;11.754;2023-08-01T02:10:53;15.60;99.90
21184;DHT22;18176;49.502;11.754;2023-08-01T02:15:43;15.60;99.90
21184;DHT22;18176;49.502;11.754;2023-08-01T02:20:09;15.60;99.90
21184;DHT22;18176;49.502;11.754;2023-08-01T02:24:42;15.60;99.90
21184;DHT22;18176;49.502;11.754;2023-08-01T02:28:52;15.60;99.90
21184;DHT22;18176;49.502;11.754;2023-08-01T02:33:21;15.60;99.90
21184;DHT22;18176;49.502;11.754;2023-08-01T02:37:37;15.60;99.90
21184;DHT22;18176;49.502;11.754;2023-08-01T02:41:48;15.60;99.90
21184;DHT22;18176;49.502;11.754;2023-08-01T02:45:57;15.60;99.90
21184;DHT22;18176;49.502;11.754;2023-08-01T02:50:03;15.50;99.90
21184;DHT22;18176;49.502;11.754;2023-08-01T02:54:11;15.50;99.90
21184;DHT22;18176;49.502;11.754;2023-08-01T02:58:16;15.50;99.90
21184;DHT22;18176;49.502;11.754;2023-08-01T03:02:28;15.50;99.90
21184;DHT22;18176;49.502;11.754;2023-08-01T03:06:39;15.50;99.90
21184;DHT22;18176;49.502;11.754;2023-08-01T03:10:46;15.50;99.90
21184;DHT22;18176;49.502;11.754;2023-08-01T03:15:04;15.50;99.90
21184;DHT22;18176;49.502;11.754;2023-08-01T03:19:14;15.50;99.90
21184;DHT22;18176;49.502;11.754;2023-08-01T03:23:21;15.50;99.90
21184;DHT22;18176;49.502;11.754;2023-08-01T03:27:24;15.50;99.90
21184;DHT22;18176;49.502;11.754;2023-08-01T03:31:32;15.50;99.90
21184;DHT22;18176;49.502;11.754;2023-08-01T03:35:35;15.50;99.90
21184;DHT22;18176;49.502;11.754;2023-08-01T03:39:36;15.40;99.90
21184;DHT22;18176;49.502;11.754;2023-08-01T03:43:36;15.50;99.90
21184;DHT22;18176;49.502;11.754;2023-08-01T03:47:36;15.50;99.90
21184;DHT22;18176;49.502;11.754;2023-08-01T03:51:39;15.50;99.90
21184;DHT22;18176;49.502;11.754;2023-08-01T03:55:43;15.40;99.90
21184;DHT22;18176;49.502;11.754;2023-08-01T03:59:43;15.40;99.90
21184;DHT22;18176;49.502;11.754;2023-08-01T04:03:44;15.50;99.90
21184;DHT22;18176;49.502;11.754;2023-08-01T04:07:47;15.50;99.90
21184;DHT22;18176;49.502;11.754;2023-08-01T04:11:47;15.40;99.90
21184;DHT22;18176;49.502;11.754;2023-08-01T04:15:48;15.50;99.90
21184;DHT22;18176;49.502;11.754;2023-08-01T04:19:48;15.50;99.90
21184;DHT22;18176;49.502;11.754;2023-08-01T04:23:51;15.50;99.90
21184;DHT22;18176;49.502;11.754;2023-08-01T04:27:52;15.50;99.90
21184;DHT22;18176;49.502;11.754;2023-08-01T04:31:53;15.40;99.90
21184;DHT22;18176;49.502;11.754;2023-08-01T04:35:53;15.50;99.90
21184;DHT22;18176;49.502;11.754;2023-08-01T04:39:56;15.50;99.90
21184;DHT22;18176;49.502;11.754;2023-08-01T04:43:57;15.50;99.90
21184;DHT22;18176;49.502;11.754;2023-08-01T04:48:02;15.50;99.90
21184;DHT22;18176;49.502;11.754;2023-08-01T04:52:04;15.50;99.90
21184;DHT22;18176;49.502;11.754;2023-08-01T04:56:07;15.50;99.90
21184;DHT22;18176;49.502;11.754;2023-08-01T05:00:10;15.50;99.90
21184;DHT22;18176;49.502;11.754;2023-08-01T05:04:11;15.50;99.90
21184;DHT22;18176;49.502;11.754;2023-08-01T05:08:12;15.50;99.90
21184;DHT22;18176;49.502;11.754;2023-08-01T05:12:14;15.50;99.90
21184;DHT22;18176;49.502;11.754;2023-08-01T05:16:15;15.50;99.90
21184;DHT22;18176;49.502;11.754;2023-08-01T05:20:15;15.50;99.90
21184;DHT22;18176;49.502;11.754;2023-08-01T05:24:16;15.60;99.90
21184;DHT22;18176;49.502;11.754;2023-08-01T05:28:19;15.60;99.90
21184;DHT22;18176;49.502;11.754;2023-08-01T05:32:19;15.60;99.90
21184;DHT22;18176;49.502;11.754;2023-08-01T05:36:21;15.60;99.90
21184;DHT22;18176;49.502;11.754;2023-08-01T05:40:22;15.70;99.90
21184;DHT22;18176;49.502;11.754;2023-08-01T05:44:25;15.70;99.90
21184;DHT22;18176;49.502;11.754;2023-08-01T05:48:26;15.80;99.90
21184;DHT22;18176;49.502;11.754;2023-08-01T05:52:30;15.80;99.90
21184;DHT22;18176;49.502;11.754;2023-08-01T05:56:34;15.80;99.90
21184;DHT22;18176;49.502;11.754;2023-08-01T06:00:40;15.80;99.90
21184;DHT22;18176;49.502;11.754;2023-08-01T06:04:45;15.90;99.90
21184;DHT22;18176;49.502;11.754;2023-08-01T06:08:47;16.00;99.90
21184;DHT22;18176;49.502;11.754;2023-08-01T06:12:51;16.00;99.90
21184;DHT22;18176;49.502;11.754;2023-08-01T06:16:57;16.00;99.90
21184;DHT22;18176;49.502;11.754;2023-08-01T06:20:58;16.10;99.90
21184;DHT22;18176;49.502;11.754;2023-08-01T06:25:02;16.00;99.90
21184;DHT22;18176;49.502;11.754;2023-08-01T06:29:07;16.00;99.90
21184;DHT22;18176;49.502;11.754;2023-08-01T06:33:14;16.00;99.90
21184;DHT22;18176;49.502;11.754;2023-08-01T06:37:15;16.00;99.90
21184;DHT22;18176;49.502;11.754;2023-08-01T06:41:21;16.20;99.90
21184;DHT22;18176;49.502;11.754;2023-08-01T06:45:29;16.20;99.90
21184;DHT22;18176;49.502;11.754;2023-08-01T06:49:37;16.20;99.90
21184;DHT22;18176;49.502;11.754;2023-08-01T06:53:43;16.10;99.90
21184;DHT22;18176;49.502;11.754;2023-08-01T06:57:47;16.20;99.90
21184;DHT22;18176;49.502;11.754;2023-08-01T07:01:49;16.30;99.90
21184;DHT22;18176;49.502;11.754;2023-08-01T07:05:54;16.30;99.90
21184;DHT22;18176;49.502;11.754;2023-08-01T07:09:56;16.30;99.90
21184;DHT22;18176;49.502;11.754;2023-08-01T07:14:02;16.30;99.90
21184;DHT22;18176;49.502;11.754;2023-08-01T07:18:03;16.30;99.90
21184;DHT22;18176;49.502;11.754;2023-08-01T07:22:07;16.20;99.90
21184;DHT22;18176;49.502;11.754;2023-08-01T07:26:10;16.20;99.90
21184;DHT22;18176;49.502;11.754;2023-08-01T07:30:19;16.20;99.90
21184;DHT22;18176;49.502;11.754;2023-08-01T07:34:19;16.20;99.90
21184;DHT22;18176;49.502;11.754;2023-08-01T07:38:22;16.20;99.90
21184;DHT22;18176;49.502;11.754;2023-08-01T07:42:24;16.30;99.90
21184;DHT22;18176;49.502;11.754;2023-08-01T07:46:24;16.20;99.90
21184;DHT22;18176;49.502;11.754;2023-08-01T07:50:25;16.30;99.90
21184;DHT22;18176;49.502;11.754;2023-08-01T07:54:28;16.20;99.90
21184;DHT22;18176;49.502;11.754;2023-08-01T07:58:29;16.20;99.90
21184;DHT22;18176;49.502;11.754;2023-08-01T08:02:29;16.20;99.90
21184;DHT22;18176;49.502;11.754;2023-08-01T08:06:30;16.20;99.90
21184;DHT22;18176;49.502;11.754;2023-08-01T08:10:33;16.20;99.90
21184;DHT22;18176;49.502;11.754;2023-08-01T08:14:34;16.20;99.90
21184;DHT22;18176;49.502;11.754;2023-08-01T08:18:35;16.10;99.90
21184;DHT22;18176;49.502;11.754;2023-08-01T08:22:36;16.00;99.90
21184;DHT22;18176;49.502;11.754;2023-08-01T08:26:39;16.00;99.90
21184;DHT22;18176;49.502;11.754;2023-08-01T08:30:39;16.00;99.90
21184;DHT22;18176;49.502;11.754;2023-08-01T08:34:40;16.00;99.90
21184;DHT22;18176;49.502;11.754;2023-08-01T08:38:40;16.00;99.90
21184;DHT22;18176;49.502;11.754;2023-08-01T08:42:43;16.10;99.90
21184;DHT22;18176;49.502;11.754;2023-08-01T08:46:50;16.20;99.90
21184;DHT22;18176;49.502;11.754;2023-08-01T08:50:52;16.30;99.90
21184;DHT22;18176;49.502;11.754;2023-08-01T08:54:56;16.30;99.90
21184;DHT22;18176;49.502;11.754;2023-08-01T08:59:00;16.30;99.90
21184;DHT22;18176;49.502;11.754;2023-08-01T09:03:01;16.30;99.90
21184;DHT22;18176;49.502;11.754;2023-08-01T09:07:05;16.30;99.90
21184;DHT22;18176;49.502;11.754;2023-08-01T09:11:08;16.30;99.90
21184;DHT22;18176;49.502;11.754;2023-08-01T09:15:12;16.20;99.90
21184;DHT22;18176;49.502;11.754;2023-08-01T09:19:16;16.10;99.90
21184;DHT22;18176;49.502;11.754;2023-08-01T09:23:17;16.00;99.90
21184;DHT22;18176;49.502;11.754;2023-08-01T09:27:18;16.00;99.90
21184;DHT22;18176;49.502;11.754;2023-08-01T09:31:29;16.00;99.90
21184;DHT22;18176;49.502;11.754;2023-08-01T09:35:38;16.00;99.90
21184;DHT22;18176;49.502;11.754;2023-08-01T09:39:41;16.10;99.90
21184;DHT22;18176;49.502;11.754;2023-08-01T09:43:45;16.10;99.90
21184;DHT22;18176;49.502;11.754;2023-08-01T09:47:49;16.30;99.90
21184;DHT22;18176;49.502;11.754;2023-08-01T09:51:50;16.50;99.90
21184;DHT22;18176;49.502;11.754;2023-08-01T09:55:52;16.80;99.90
21184;DHT22;18176;49.502;11.754;2023-08-01T09:59:56;17.00;99.90
21184;DHT22;18176;49.502;11.754;2023-08-01T10:04:11;17.10;99.90
21184;DHT22;18176;49.502;11.754;2023-08-01T10:08:13;17.10;99.90
21184;DHT22;18176;49.502;11.754;2023-08-01T10:12:17;17.20;99.90
21184;DHT22;18176;49.502;11.754;2023-08-01T10:16:18;17.40;99.90
21184;DHT22;18176;49.502;11.754;2023-08-01T10:20:21;17.30;99.90
21184;DHT22;18176;49.502;11.754;2023-08-01T10:24:23;17.10;99.90
21184;DHT22;18176;49.502;11.754;2023-08-01T10:28:32;17.00;99.90
21184;DHT22;18176;49.502;11.754;2023-08-01T10:32:34;16.80;99.90
21184;DHT22;18176;49.502;11.754;2023-08-01T10:36:39;16.70;99.90
21184;DHT22;18176;49.502;11.754;2023-08-01T10:40:41;16.80;99.90
21184;DHT22;18176;49.502;11.754;2023-08-01T10:44:45;16.80;99.90
21184;DHT22;18176;49.502;11.754;2023-08-01T10:48:50;16.90;99.90
21184;DHT22;18176;49.502;11.754;2023-08-01T10:53:02;17.10;99.90
21184;DHT22;18176;49.502;11.754;2023-08-01T10:57:06;17.20;99.90
21184;DHT22;18176;49.502;11.754;2023-08-01T11:01:07;17.20;99.90
21184;DHT22;18176;49.502;11.754;2023-08-01T11:05:08;17.20;99.90
21184;DHT22;18176;49.502;11.754;2023-08-01T11:09:21;17.00;99.90
21184;DHT22;18176;49.502;11.754;2023-08-01T11:13:23;16.90;99.90
21184;DHT22;18176;49.502;11.754;2023-08-01T11:17:23;17.00;99.90
21184;DHT22;18176;49.502;11.754;2023-08-01T11:21:26;16.90;99.90
21184;DHT22;18176;49.502;11.754;2023-08-01T11:25:38;16.80;99.90
21184;DHT22;18176;49.502;11.754;2023-08-01T11:29:40;17.00;99.90
21184;DHT22;18176;49.502;11.754;2023-08-01T11:33:41;17.00;99.90
21184;DHT22;18176;49.502;11.754;2023-08-01T11:37:41;17.30;99.90
21184;DHT22;18176;49.502;11.754;2023-08-01T11:41:45;17.20;99.90
21184;DHT22;18176;49.502;11.754;2023-08-01T11:45:49;17.00;99.90
21184;DHT22;18176;49.502;11.754;2023-08-01T11:49:51;17.30;99.90
21184;DHT22;18176;49.502;11.754;2023-08-01T11:53:58;17.10;99.90
21184;DHT22;18176;49.502;11.754;2023-08-01T11:58:02;17.20;99.90
21184;DHT22;18176;49.502;11.754;2023-08-01T12:02:03;17.50;99.90
21184;DHT22;18176;49.502;11.754;2023-08-01T12:06:04;17.90;99.90
21184;DHT22;18176;49.502;11.754;2023-08-01T12:10:06;18.40;99.90
21184;DHT22;18176;49.502;11.754;2023-08-01T12:14:11;18.60;99.90
21184;DHT22;18176;49.502;11.754;2023-08-01T12:18:20;18.60;99.90
21184;DHT22;18176;49.502;11.754;2023-08-01T12:22:41;18.60;99.90
21184;DHT22;18176;49.502;11.754;2023-08-01T12:26:41;18.90;99.90
21184;DHT22;18176;49.502;11.754;2023-08-01T12:30:44;18.90;99.90
21184;DHT22;18176;49.502;11.754;2023-08-01T12:34:46;18.90;99.90
21184;DHT22;18176;49.502;11.754;2023-08-01T12:38:46;18.90;99.90
21184;DHT22;18176;49.502;11.754;2023-08-01T12:42:47;18.90;99.90
21184;DHT22;18176;49.502;11.754;2023-08-01T12:46:49;18.70;99.90
21184;DHT22;18176;49.502;11.754;2023-08-01T12:50:51;18.30;99.90
21184;DHT22;18176;49.502;11.754;2023-08-01T12:54:51;17.10;99.90
21184;DHT22;18176;49.502;11.754;2023-08-01T12:58:52;16.70;99.90
21184;DHT22;18176;49.502;11.754;2023-08-01T13:02:55;17.50;99.90
21184;DHT22;18176;49.502;11.754;2023-08-01T13:06:55;18.70;99.90
21184;DHT22;18176;49.502;11.754;2023-08-01T13:10:56;20.20;99.90
21184;DHT22;18176;49.502;11.754;2023-08-01T13:14:57;21.40;99.90
21184;DHT22;18176;49.502;11.754;2023-08-01T13:19:14;22.60;99.90
21184;DHT22;18176;49.502;11.754;2023-08-01T13:23:14;23.50;99.90
21184;DHT22;18176;49.502;11.754;2023-08-01T13:27:14;23.90;99.90
21184;DHT22;18176;49.502;11.754;2023-08-01T13:31:15;23.90;99.90
21184;DHT22;18176;49.502;11.754;2023-08-01T13:35:18;23.30;99.90
21184;DHT22;18176;49.502;11.754;2023-08-01T13:39:18;23.40;99.90
21184;DHT22;18176;49.502;11.754;2023-08-01T13:43:19;24.50;99.90
21184;DHT22;18176;49.502;11.754;2023-08-01T13:47:19;25.80;99.90
21184;DHT22;18176;49.502;11.754;2023-08-01T13:51:22;25.20;99.90
21184;DHT22;18176;49.502;11.754;2023-08-01T13:55:31;23.60;99.90
21184;DHT22;18176;49.502;11.754;2023-08-01T13:59:36;22.50;99.90
21184;DHT22;18176;49.502;11.754;2023-08-01T14:03:39;21.70;99.90
21184;DHT22;18176;49.502;11.754;2023-08-01T14:07:47;21.00;99.90
21184;DHT22;18176;49.502;11.754;2023-08-01T14:11:54;20.40;99.90
21184;DHT22;18176;49.502;11.754;2023-08-01T14:15:59;20.20;99.90
21184;DHT22;18176;49.502;11.754;2023-08-01T14:20:04;20.70;99.90
21184;DHT22;18176;49.502;11.754;2023-08-01T14:24:16;22.30;99.90
21184;DHT22;18176;49.502;11.754;2023-08-01T14:28:20;23.90;99.90
21184;DHT22;18176;49.502;11.754;2023-08-01T14:32:25;23.80;99.90
21184;DHT22;18176;49.502;11.754;2023-08-01T14:36:32;22.20;99.90
21184;DHT22;18176;49.502;11.754;2023-08-01T14:40:41;20.90;99.90
21184;DHT22;18176;49.502;11.754;2023-08-01T14:45:05;20.10;99.90
21184;DHT22;18176;49.502;11.754;2023-08-01T14:49:10;19.70;99.90
21184;DHT22;18176;49.502;11.754;2023-08-01T14:53:15;19.30;99.90
21184;DHT22;18176;49.502;11.754;2023-08-01T14:57:21;19.30;99.90
21184;DHT22;18176;49.502;11.754;2023-08-01T15:01:23;20.20;99.90
21184;DHT22;18176;49.502;11.754;2023-08-01T15:05:29;21.50;99.90
21184;DHT22;18176;49.502;11.754;2023-08-01T15:09:34;21.70;99.90
21184;DHT22;18176;49.502;11.754;2023-08-01T15:13:45;21.10;99.90
21184;DHT22;18176;49.502;11.754;2023-08-01T15:17:52;21.00;99.90
21184;DHT22;18176;49.502;11.754;2023-08-01T15:21:56;20.90;99.90
21184;DHT22;18176;49.502;11.754;2023-08-01T15:25:58;20.70;99.90
21184;DHT22;18176;49.502;11.754;2023-08-01T15:30:01;21.20;99.90
21184;DHT22;18176;49.502;11.754;2023-08-01T15:34:02;21.80;99.90
21184;DHT22;18176;49.502;11.754;2023-08-01T15:38:05;22.20;99.90
21184;DHT22;18176;49.502;11.754;2023-08-01T15:42:07;22.20;99.90
21184;DHT22;18176;49.502;11.754;2023-08-01T15:46:10;22.40;99.90
21184;DHT22;18176;49.502;11.754;2023-08-01T15:50:11;22.60;99.90
21184;DHT22;18176;49.502;11.754;2023-08-01T15:54:12;23.40;99.90
21184;DHT22;18176;49.502;11.754;2023-08-01T15:58:12;24.00;99.90
21184;DHT22;18176;49.502;11.754;2023-08-01T16:02:15;23.60;99.90
21184;DHT22;18176;49.502;11.754;2023-08-01T16:06:15;23.90;99.90
21184;DHT22;18176;49.502;11.754;2023-08-01T16:10:16;24.00;99.90
21184;DHT22;18176;49.502;11.754;2023-08-01T16:14:16;23.20;99.90
21184;DHT22;18176;49.502;11.754;2023-08-01T16:18:37;22.80;99.90
21184;DHT22;18176;49.502;11.754;2023-08-01T16:22:38;23.20;99.90
21184;DHT22;18176;49.502;11.754;2023-08-01T16:26:38;22.80;99.90
21184;DHT22;18176;49.502;11.754;2023-08-01T16:30:38;22.50;99.90
21184;DHT22;18176;49.502;11.754;2023-08-01T16:34:41;22.50;99.90
21184;DHT22;18176;49.502;11.754;2023-08-01T16:38:41;23.10;99.90
21184;DHT22;18176;49.502;11.754;2023-08-01T16:42:42;23.20;99.90
21184;DHT22;18176;49.502;11.754;2023-08-01T16:46:43;22.60;99.90
21184;DHT22;18176;49.502;11.754;2023-08-01T16:50:46;21.70;99.90
21184;DHT22;18176;49.502;11.754;2023-08-01T16:54:46;20.90;99.90
21184;DHT22;18176;49.502;11.754;2023-08-01T16:58:46;20.40;99.90
21184;DHT22;18176;49.502;11.754;2023-08-01T17:02:48;20.00;99.90
21184;DHT22;18176;49.502;11.754;2023-08-01T17:06:51;20.00;99.90
21184;DHT22;18176;49.502;11.754;2023-08-01T17:10:51;19.90;99.90
21184;DHT22;18176;49.502;11.754;2023-08-01T17:14:51;19.80;99.90
21184;DHT22;18176;49.502;11.754;2023-08-01T17:18:52;19.70;99.90
21184;DHT22;18176;49.502;11.754;2023-08-01T17:22:54;19.60;99.90
21184;DHT22;18176;49.502;11.754;2023-08-01T17:26:55;19.40;99.90
21184;DHT22;18176;49.502;11.754;2023-08-01T17:30:55;19.10;99.90
21184;DHT22;18176;49.502;11.754;2023-08-01T17:34:56;19.00;99.90
21184;DHT22;18176;49.502;11.754;2023-08-01T17:38:59;18.70;99.90
21184;DHT22;18176;49.502;11.754;2023-08-01T17:42:59;17.90;99.90
21184;DHT22;18176;49.502;11.754;2023-08-01T17:47:01;17.20;99.90
21184;DHT22;18176;49.502;11.754;2023-08-01T17:51:03;17.00;99.90
21184;DHT22;18176;49.502;11.754;2023-08-01T17:55:08;16.80;99.90
21184;DHT22;18176;49.502;11.754;2023-08-01T17:59:09;16.60;99.90
21184;DHT22;18176;49.502;11.754;2023-08-01T18:03:12;16.30;99.90
21184;DHT22;18176;49.502;11.754;2023-08-01T18:07:12;16.10;99.90
21184;DHT22;18176;49.502;11.754;2023-08-01T18:11:17;16.00;99.90
21184;DHT22;18176;49.502;11.754;2023-08-01T18:15:20;15.80;99.90
21184;DHT22;18176;49.502;11.754;2023-08-01T18:19:20;15.70;99.90
21184;DHT22;18176;49.502;11.754;2023-08-01T18:23:22;15.70;99.90
21184;DHT22;18176;49.502;11.754;2023-08-01T18:27:28;15.70;99.90
21184;DHT22;18176;49.502;11.754;2023-08-01T18:31:32;15.60;99.90
21184;DHT22;18176;49.502;11.754;2023-08-01T18:35:40;15.50;99.90
21184;DHT22;18176;49.502;11.754;2023-08-01T18:39:42;15.50;99.90
21184;DHT22;18176;49.502;11.754;2023-08-01T18:43:45;15.60;99.90
21184;DHT22;18176;49.502;11.754;2023-08-01T18:47:45;15.60;99.90
21184;DHT22;18176;49.502;11.754;2023-08-01T18:51:49;15.40;99.90
21184;DHT22;18176;49.502;11.754;2023-08-01T18:56:09;15.10;99.90
21184;DHT22;18176;49.502;11.754;2023-08-01T19:00:16;14.90;99.90
21184;DHT22;18176;49.502;11.754;2023-08-01T19:04:18;14.70;99.90
21184;DHT22;18176;49.502;11.754;2023-08-01T19:08:21;14.60;99.90
21184;DHT22;18176;49.502;11.754;2023-08-01T19:12:24;14.60;99.90
21184;DHT22;18176;49.502;11.754;2023-08-01T19:16:29;14.60;99.90
21184;DHT22;18176;49.502;11.754;2023-08-01T19:20:30;14.60;99.90
21184;DHT22;18176;49.502;11.754;2023-08-01T19:24:31;14.60;99.90
21184;DHT22;18176;49.502;11.754;2023-08-01T19:28:31;14.60;99.90
21184;DHT22;18176;49.502;11.754;2023-08-01T19:32:37;14.60;99.90
21184;DHT22;18176;49.502;11.754;2023-08-01T19:36:38;14.50;99.90
21184;DHT22;18176;49.502;11.754;2023-08-01T19:40:39;14.40;99.90
21184;DHT22;18176;49.502;11.754;2023-08-01T19:44:41;14.50;99.90
21184;DHT22;18176;49.502;11.754;2023-08-01T19:48:47;14.50;99.90
21184;DHT22;18176;49.502;11.754;2023-08-01T19:52:50;14.40;99.90
21184;DHT22;18176;49.502;11.754;2023-08-01T19:56:53;14.30;99.90
21184;DHT22;18176;49.502;11.754;2023-08-01T20:00:54;14.30;99.90
21184;DHT22;18176;49.502;11.754;2023-08-01T20:04:57;14.20;99.90
21184;DHT22;18176;49.502;11.754;2023-08-01T20:08:58;14.20;99.90
21184;DHT22;18176;49.502;11.754;2023-08-01T20:12:58;14.20;99.90
21184;DHT22;18176;49.502;11.754;2023-08-01T20:16:59;14.10;99.90
21184;DHT22;18176;49.502;11.754;2023-08-01T20:21:03;14.20;99.90
21184;DHT22;18176;49.502;11.754;2023-08-01T20:25:04;14.10;99.90
21184;DHT22;18176;49.502;11.754;2023-08-01T20:29:05;14.10;99.90
21184;DHT22;18176;49.502;11.754;2023-08-01T20:33:05;14.00;99.90
21184;DHT22;18176;49.502;11.754;2023-08-01T20:37:08;14.00;99.90
21184;DHT22;18176;49.502;11.754;2023-08-01T20:41:12;14.00;99.90
21184;DHT22;18176;49.502;11.754;2023-08-01T20:45:13;14.00;99.90
21184;DHT22;18176;49.502;11.754;2023-08-01T20:49:13;14.00;99.90
21184;DHT22;18176;49.502;11.754;2023-08-01T20:53:16;13.90;99.90
21184;DHT22;18176;49.502;11.754;2023-08-01T20:57:16;13.90;99.90
21184;DHT22;18176;49.502;11.754;2023-08-01T21:01:17;13.80;99.90
21184;DHT22;18176;49.502;11.754;2023-08-01T21:05:17;13.80;99.90
21184;DHT22;18176;49.502;11.754;2023-08-01T21:09:20;13.70;99.90
21184;DHT22;18176;49.502;11.754;2023-08-01T21:13:21;13.70;99.90
21184;DHT22;18176;49.502;11.754;2023-08-01T21:17:21;13.70;99.90
21184;DHT22;18176;49.502;11.754;2023-08-01T21:21:22;13.70;99.90
21184;DHT22;18176;49.502;11.754;2023-08-01T21:25:25;13.60;99.90
21184;DHT22;18176;49.502;11.754;2023-08-01T21:29:25;13.50;99.90
21184;DHT22;18176;49.502;11.754;2023-08-01T21:33:25;13.50;99.90
21184;DHT22;18176;49.502;11.754;2023-08-01T21:37:26;13.50;99.90
21184;DHT22;18176;49.502;11.754;2023-08-01T21:41:28;13.50;99.90
21184;DHT22;18176;49.502;11.754;2023-08-01T21:45:29;13.50;99.90
21184;DHT22;18176;49.502;11.754;2023-08-01T21:49:29;13.50;99.90
21184;DHT22;18176;49.502;11.754;2023-08-01T21:53:30;13.60;99.90
21184;DHT22;18176;49.502;11.754;2023-08-01T21:57:33;13.60;99.90
21184;DHT22;18176;49.502;11.754;2023-08-01T22:01:33;13.70;99.90
21184;DHT22;18176;49.502;11.754;2023-08-01T22:05:34;13.70;99.90
21184;DHT22;18176;49.502;11.754;2023-08-01T22:09:34;13.70;99.90
21184;DHT22;18176;49.502;11.754;2023-08-01T22:13:37;13.80;99.90
21184;DHT22;18176;49.502;11.754;2023-08-01T22:17:38;13.70;99.90
21184;DHT22;18176;49.502;11.754;2023-08-01T22:21:39;13.60;99.90
21184;DHT22;18176;49.502;11.754;2023-08-01T22:25:39;13.70;99.90
21184;DHT22;18176;49.502;11.754;2023-08-01T22:29:42;13.60;99.90
21184;DHT22;18176;49.502;11.754;2023-08-01T22:33:42;13.60;99.90
21184;DHT22;18176;49.502;11.754;2023-08-01T22:37:42;13.60;99.90
21184;DHT22;18176;49.502;11.754;2023-08-01T22:41:43;13.60;99.90
21184;DHT22;18176;49.502;11.754;2023-08-01T22:45:54;13.60;99.90
21184;DHT22;18176;49.502;11.754;2023-08-01T22:49:54;13.60;99.90
21184;DHT22;18176;49.502;11.754;2023-08-01T22:54:03;13.60;99.90
21184;DHT22;18176;49.502;11.754;2023-08-01T22:58:03;13.60;99.90
21184;DHT22;18176;49.502;11.754;2023-08-01T23:02:06;13.60;99.90
21184;DHT22;18176;49.502;11.754;2023-08-01T23:06:06;13.70;99.90
21184;DHT22;18176;49.502;11.754;2023-08-01T23:10:08;13.70;99.90
21184;DHT22;18176;49.502;11.754;2023-08-01T23:14:08;13.60;99.90
21184;DHT22;18176;49.502;11.754;2023-08-01T23:18:11;13.60;99.90
21184;DHT22;18176;49.502;11.754;2023-08-01T23:22:12;13.70;99.90
21184;DHT22;18176;49.502;11.754;2023-08-01T23:26:12;13.70;99.90
21184;DHT22;18176;49.502;11.754;2023-08-01T23:30:12;13.70;99.90
21184;DHT22;18176;49.502;11.754;2023-08-01T23:34:15;13.70;99.90
21184;DHT22;18176;49.502;11.754;2023-08-01T23:38:16;13.70;99.90
21184;DHT22;18176;49.502;11.754;2023-08-01T23:42:17;13.60;99.90
21184;DHT22;18176;49.502;11.754;2023-08-01T23:46:21;13.60;99.90
21184;DHT22;18176;49.502;11.754;2023-08-01T23:50:24;13.70;99.90
21184;DHT22;18176;49.502;11.754;2023-08-01T23:54:25;13.60;99.90
21184;DHT22;18176;49.502;11.754;2023-08-01T23:58:25;13.50;99.90
